Time;durP1;ratioP1;P1;durP2;ratioP2;P2;SDS_P1;SDS_P2;PMS_P1;PMS_P2;Temp;Humidity;BMP_temperature;BMP_pressure;BME280_temperature;BME280_humidity;BME280_pressure;Samples;Min_cycle;Max_cycle;Signal;HPM_P1;HPM_P2
2022/08/07 00:01:07;;;;;;;16.53;15.03;;;14.90;96.70;;;;;;4994144;28;20460;-75
2022/08/07 00:03:55;;;;;;;17.73;16.13;;;14.90;96.70;;;;;;4976642;28;20437;-75
2022/08/07 00:06:24;;;;;;;16.70;15.20;;;14.80;96.80;;;;;;4994290;28;20422;-75
2022/08/07 00:09:01;;;;;;;17.67;15.90;;;14.80;96.80;;;;;;4992739;28;20819;-74
2022/08/07 00:11:49;;;;;;;17.53;15.67;;;14.80;96.90;;;;;;4994156;28;20396;-75
2022/08/07 00:14:29;;;;;;;16.93;15.37;;;14.70;96.90;;;;;;4994103;28;20466;-75
2022/08/07 00:17:01;;;;;;;16.97;15.37;;;14.70;96.90;;;;;;4976600;28;20956;-75
2022/08/07 00:19:30;;;;;;;17.60;15.90;;;14.70;97.00;;;;;;4993967;28;20429;-75
2022/08/07 00:22:19;;;;;;;16.13;14.53;;;14.70;97.10;;;;;;4993941;28;20453;-75
2022/08/07 00:25:03;;;;;;;16.87;15.30;;;14.60;97.10;;;;;;4995271;28;20482;-74
2022/08/07 00:27:32;;;;;;;16.23;14.77;;;14.60;97.10;;;;;;4978593;28;20455;-74
2022/08/07 00:30:20;;;;;;;17.20;15.60;;;14.60;97.20;;;;;;4994885;28;20433;-75
2022/08/07 00:32:57;;;;;;;15.80;14.40;;;14.50;97.20;;;;;;4998767;28;20779;-75
2022/08/07 00:35:26;;;;;;;16.23;14.73;;;14.50;97.30;;;;;;4992588;28;20447;-75
2022/08/07 00:37:57;;;;;;;17.30;15.70;;;14.50;97.40;;;;;;4990533;28;20441;-75
2022/08/07 00:40:25;;;;;;;16.60;15.20;;;14.40;97.40;;;;;;5006137;28;20441;-75
2022/08/07 00:43:09;;;;;;;16.20;14.73;;;14.40;97.50;;;;;;5005376;28;20427;-75
2022/08/07 00:45:58;;;;;;;17.87;16.20;;;14.40;97.50;;;;;;4985789;28;20522;-75
2022/08/07 00:48:28;;;;;;;17.20;15.73;;;14.30;97.50;;;;;;5001701;28;20440;-74
2022/08/07 00:51:01;;;;;;;17.10;15.60;;;14.30;97.90;;;;;;4986135;28;20453;-75
2022/08/07 00:53:30;;;;;;;16.93;15.40;;;14.30;97.70;;;;;;4980459;28;20440;-75
2022/08/07 00:56:06;;;;;;;18.23;16.70;;;14.30;97.70;;;;;;4997955;28;20484;-75
2022/08/07 00:58:43;;;;;;;18.50;16.73;;;14.20;97.80;;;;;;4980418;28;20518;-75
2022/08/07 01:01:15;;;;;;;19.33;17.63;;;14.20;97.80;;;;;;4980651;28;20787;-75
2022/08/07 01:03:44;;;;;;;19.47;17.67;;;14.20;97.90;;;;;;4980338;28;20431;-75
2022/08/07 01:06:24;;;;;;;18.57;16.90;;;14.20;98.00;;;;;;4980021;28;20426;-75
2022/08/07 01:08:52;;;;;;;19.70;17.93;;;14.20;98.00;;;;;;4980109;28;20445;-75
2022/08/07 01:11:25;;;;;;;19.70;17.90;;;14.10;98.00;;;;;;4980245;28;20445;-75
2022/08/07 01:14:14;;;;;;;18.80;16.97;;;14.10;98.10;;;;;;4979702;28;20468;-75
2022/08/07 01:16:44;;;;;;;17.73;16.23;;;14.00;98.10;;;;;;4979737;28;20448;-75
2022/08/07 01:19:19;;;;;;;17.50;16.00;;;14.00;98.20;;;;;;4979724;28;21029;-75
2022/08/07 01:21:54;;;;;;;18.20;16.50;;;14.00;98.20;;;;;;4980115;28;20435;-75
2022/08/07 01:24:30;;;;;;;17.77;16.17;;;14.00;98.30;;;;;;4979760;28;20480;-75
2022/08/07 01:27:01;;;;;;;19.10;17.30;;;14.00;98.30;;;;;;4996979;28;20421;-75
2022/08/07 01:29:32;;;;;;;18.40;16.70;;;13.90;98.40;;;;;;4979402;28;20457;-75
2022/08/07 01:32:04;;;;;;;17.10;15.33;;;13.90;98.50;;;;;;4979386;28;20492;-75
2022/08/07 01:34:44;;;;;;;17.47;15.87;;;13.90;98.50;;;;;;4979345;28;20585;-75
2022/08/07 01:37:18;;;;;;;17.10;15.50;;;13.80;98.50;;;;;;4979541;28;20436;-75
2022/08/07 01:39:49;;;;;;;18.03;16.33;;;13.80;98.60;;;;;;4979395;28;20942;-75
2022/08/07 01:42:25;;;;;;;16.80;15.20;;;13.80;98.60;;;;;;4979391;28;20498;-75
2022/08/07 01:45:14;;;;;;;17.77;16.17;;;13.80;98.60;;;;;;4996663;28;21021;-75
2022/08/07 01:47:49;;;;;;;17.20;15.70;;;13.80;98.70;;;;;;4979345;28;20447;-75
2022/08/07 01:50:38;;;;;;;18.20;16.60;;;13.70;98.60;;;;;;4996593;28;20448;-75
2022/08/07 01:53:14;;;;;;;17.33;15.73;;;13.70;98.70;;;;;;4979255;28;20485;-75
2022/08/07 01:56:09;;;;;;;17.50;15.90;;;13.70;98.80;;;;;;4979009;28;20455;-75
2022/08/07 01:58:47;;;;;;;16.77;15.10;;;13.60;99.00;;;;;;4979504;28;20946;-75
2022/08/07 02:01:21;;;;;;;16.43;15.00;;;13.60;98.80;;;;;;4978827;28;20461;-75
2022/08/07 02:04:13;;;;;;;17.50;15.90;;;13.60;98.90;;;;;;4979382;28;20460;-75
2022/08/07 02:06:47;;;;;;;16.97;15.40;;;13.60;99.30;;;;;;4997213;28;20756;-75
2022/08/07 02:09:19;;;;;;;16.63;15.13;;;13.50;99.00;;;;;;4996707;28;20822;-75
2022/08/07 02:12:16;;;;;;;16.80;15.20;;;13.50;99.10;;;;;;4978830;28;20444;-75
2022/08/07 02:14:57;;;;;;;15.97;14.53;;;13.50;99.10;;;;;;4978605;28;20834;-75
2022/08/07 02:17:33;;;;;;;17.00;15.50;;;13.50;99.20;;;;;;4978780;28;20440;-75
2022/08/07 02:20:06;;;;;;;16.07;14.67;;;13.40;99.40;;;;;;4994825;28;20950;-75
2022/08/07 02:22:46;;;;;;;17.00;15.40;;;13.40;99.20;;;;;;4978465;28;20461;-75
2022/08/07 02:25:24;;;;;;;19.47;17.77;;;13.40;99.20;;;;;;4978513;28;20478;-75
2022/08/07 02:28:15;;;;;;;17.87;16.17;;;13.40;99.30;;;;;;4978582;28;20441;-75
2022/08/07 02:30:55;;;;;;;14.47;13.07;;;13.40;99.30;;;;;;4978580;28;20558;-75
2022/08/07 02:33:25;;;;;;;17.57;16.03;;;13.30;99.30;;;;;;4978378;28;20444;-75
2022/08/07 02:36:10;;;;;;;19.43;17.63;;;13.30;99.40;;;;;;4978509;28;20472;-75
2022/08/07 02:39:03;;;;;;;18.70;16.90;;;13.30;99.50;;;;;;4978340;28;20444;-75
2022/08/07 02:41:53;;;;;;;18.83;17.13;;;13.20;99.50;;;;;;4978181;28;20519;-75
2022/08/07 02:44:27;;;;;;;17.33;15.73;;;13.20;99.50;;;;;;4978098;28;20572;-75
2022/08/07 02:47:05;;;;;;;17.40;15.80;;;13.20;99.60;;;;;;4978441;28;20451;-75
2022/08/07 02:49:35;;;;;;;18.47;16.60;;;13.20;99.60;;;;;;4995962;28;20418;-75
2022/08/07 02:52:30;;;;;;;17.47;15.73;;;13.10;99.60;;;;;;4979373;28;20449;-74
2022/08/07 02:55:05;;;;;;;17.43;15.63;;;13.10;99.70;;;;;;4977840;28;20530;-75
2022/08/07 02:58:02;;;;;;;18.77;16.97;;;13.10;99.90;;;;;;4978528;28;20481;-75
2022/08/07 03:00:34;;;;;;;16.63;15.07;;;13.10;99.80;;;;;;4978120;28;20471;-75
2022/08/07 03:03:09;;;;;;;16.13;14.67;;;13.10;99.80;;;;;;4977922;28;20445;-75
2022/08/07 03:05:50;;;;;;;16.03;14.63;;;13.00;99.80;;;;;;4977765;28;20527;-75
2022/08/07 03:08:21;;;;;;;16.27;14.77;;;13.00;99.80;;;;;;4978307;28;20453;-75
2022/08/07 03:10:58;;;;;;;17.20;15.70;;;13.00;99.90;;;;;;4977725;28;20448;-75
2022/08/07 03:13:34;;;;;;;17.30;15.10;;;13.00;99.90;;;;;;4993487;28;20966;-75
2022/08/07 03:16:17;;;;;;;17.30;15.60;;;13.00;99.90;;;;;;4978040;28;20464;-75
2022/08/07 03:18:55;;;;;;;15.90;14.47;;;12.90;99.90;;;;;;4977426;28;20445;-75
2022/08/07 03:21:25;;;;;;;16.40;14.93;;;12.90;99.90;;;;;;4977395;28;20883;-75
2022/08/07 03:23:56;;;;;;;16.73;15.20;;;12.90;99.90;;;;;;4977441;28;20475;-75
2022/08/07 03:26:49;;;;;;;17.10;15.50;;;12.90;99.90;;;;;;4977654;28;20449;-75
2022/08/07 03:29:29;;;;;;;17.90;16.30;;;12.80;99.90;;;;;;4977850;28;20452;-75
2022/08/07 03:31:58;;;;;;;16.90;15.30;;;12.80;99.90;;;;;;4994693;28;20430;-74
2022/08/07 03:34:28;;;;;;;16.17;14.57;;;12.80;99.90;;;;;;4977795;28;20468;-75
2022/08/07 03:37:01;;;;;;;17.00;15.40;;;12.80;99.90;;;;;;4977138;28;20468;-75
2022/08/07 03:39:43;;;;;;;16.97;15.37;;;12.80;99.90;;;;;;4977166;28;20487;-75
2022/08/07 03:42:34;;;;;;;15.47;14.07;;;12.70;99.90;;;;;;4994619;28;20512;-74
2022/08/07 03:45:08;;;;;;;17.23;15.60;;;12.70;99.90;;;;;;4976888;28;20496;-75
2022/08/07 03:47:37;;;;;;;16.70;15.20;;;12.60;99.90;;;;;;4976991;28;20437;-75
2022/08/07 03:50:20;;;;;;;19.30;13.73;;;12.60;99.90;;;;;;4994460;28;20417;-75
2022/08/07 03:52:53;;;;;;;16.30;14.90;;;12.60;99.90;;;;;;4976957;28;20484;-75
2022/08/07 03:55:22;;;;;;;16.37;14.77;;;12.60;99.90;;;;;;4976708;28;20480;-75
2022/08/07 03:58:12;;;;;;;16.60;14.97;;;12.60;99.90;;;;;;4976953;28;20445;-75
2022/08/07 04:01:03;;;;;;;16.97;15.20;;;12.50;99.90;;;;;;4994408;28;20538;-74
2022/08/07 04:03:36;;;;;;;15.63;14.13;;;12.60;99.90;;;;;;4993842;28;20460;-75
2022/08/07 04:06:20;;;;;;;15.27;13.87;;;12.50;99.90;;;;;;4978566;28;20433;-75
2022/08/07 04:09:10;;;;;;;16.27;14.80;;;12.50;99.90;;;;;;4977131;28;20873;-75
2022/08/07 04:11:45;;;;;;;14.53;13.30;;;12.50;99.90;;;;;;4995044;28;20824;-75
2022/08/07 04:14:36;;;;;;;15.60;14.13;;;12.50;99.90;;;;;;4977060;28;21011;-75
2022/08/07 04:17:17;;;;;;;15.33;13.93;;;12.50;99.90;;;;;;4976923;28;20472;-75
2022/08/07 04:19:51;;;;;;;17.03;15.23;;;12.40;99.90;;;;;;4976819;28;20527;-75
2022/08/07 04:22:26;;;;;;;16.70;14.97;;;12.50;99.90;;;;;;4976674;28;20476;-75
2022/08/07 04:25:01;;;;;;;15.37;13.97;;;12.50;99.90;;;;;;4976547;28;20542;-75
2022/08/07 04:27:32;;;;;;;16.37;14.60;;;12.40;99.90;;;;;;4976690;28;20448;-75
2022/08/07 04:30:10;;;;;;;18.00;16.30;;;12.40;99.90;;;;;;4977021;28;20535;-75
2022/08/07 04:33:08;;;;;;;17.47;15.77;;;12.40;99.90;;;;;;4976478;28;20441;-75
2022/08/07 04:35:40;;;;;;;18.53;16.80;;;12.40;99.90;;;;;;4976415;28;20503;-75
2022/08/07 04:38:13;;;;;;;18.20;16.40;;;12.40;99.90;;;;;;4976397;28;20439;-75
2022/08/07 04:40:48;;;;;;;13.00;11.57;;;12.40;99.90;;;;;;4976525;28;20436;-75
2022/08/07 04:43:30;;;;;;;17.57;15.87;;;12.30;99.90;;;;;;4976399;28;20433;-75
2022/08/07 04:46:29;;;;;;;17.67;15.57;;;12.30;99.90;;;;;;4976336;28;20539;-75
2022/08/07 04:49:14;;;;;;;17.30;15.67;;;12.30;99.90;;;;;;4976627;28;20449;-75
2022/08/07 04:52:06;;;;;;;18.50;16.60;;;12.40;99.90;;;;;;4976452;28;20448;-75
2022/08/07 04:55:01;;;;;;;18.27;16.50;;;12.40;99.90;;;;;;4976231;28;20471;-75
2022/08/07 04:57:51;;;;;;;18.30;16.50;;;12.40;99.90;;;;;;4976281;28;20486;-75
2022/08/07 05:00:47;;;;;;;18.83;17.10;;;12.40;99.90;;;;;;4976217;28;20433;-75
2022/08/07 05:03:21;;;;;;;17.70;15.80;;;12.40;99.90;;;;;;4976349;28;20452;-75
2022/08/07 05:06:14;;;;;;;20.33;18.23;;;12.40;99.90;;;;;;4976166;28;20441;-75
2022/08/07 05:08:56;;;;;;;19.57;17.60;;;12.40;99.90;;;;;;4976138;28;20861;-75
2022/08/07 05:11:34;;;;;;;20.70;18.70;;;12.50;99.90;;;;;;4976127;28;20820;-75
2022/08/07 05:14:27;;;;;;;21.13;19.13;;;12.50;99.90;;;;;;4976832;28;20488;-75
2022/08/07 05:17:19;;;;;;;19.80;17.97;;;12.50;99.90;;;;;;4976266;28;20472;-75
2022/08/07 05:20:11;;;;;;;20.00;18.10;;;12.60;99.90;;;;;;4993519;28;20426;-75
2022/08/07 05:22:45;;;;;;;19.77;17.80;;;12.60;99.90;;;;;;4976253;28;20449;-75
2022/08/07 05:25:17;;;;;;;21.43;19.43;;;12.60;99.90;;;;;;4976216;28;20464;-75
2022/08/07 05:28:05;;;;;;;22.27;20.23;;;12.60;99.90;;;;;;4993782;28;20847;-75
2022/08/07 05:30:54;;;;;;;20.97;18.87;;;12.70;99.90;;;;;;4976209;28;20447;-75
2022/08/07 05:33:27;;;;;;;20.60;18.60;;;12.70;99.90;;;;;;4975961;28;20564;-75
2022/08/07 05:35:58;;;;;;;21.47;19.33;;;12.70;99.90;;;;;;4978444;28;20491;-75
2022/08/07 05:38:29;;;;;;;20.60;18.43;;;12.80;99.90;;;;;;4979476;28;20468;-75
2022/08/07 05:41:18;;;;;;;20.37;18.37;;;12.80;99.90;;;;;;4979476;28;20441;-75
2022/08/07 05:43:53;;;;;;;19.70;17.90;;;12.90;99.90;;;;;;4979532;28;20444;-75
2022/08/07 05:46:45;;;;;;;20.10;18.20;;;12.90;99.90;;;;;;4979295;28;20455;-75
2022/08/07 05:49:23;;;;;;;18.70;16.87;;;13.00;99.90;;;;;;4979276;28;20455;-75
2022/08/07 05:51:54;;;;;;;20.47;18.50;;;13.00;99.90;;;;;;4979672;28;20453;-75
2022/08/07 05:54:26;;;;;;;20.37;18.20;;;13.10;99.90;;;;;;4979171;28;20476;-75
2022/08/07 05:57:16;;;;;;;20.30;18.37;;;13.20;99.90;;;;;;4979027;28;20479;-75
2022/08/07 05:59:48;;;;;;;17.87;16.07;;;13.30;99.90;;;;;;4995368;28;20457;-75
2022/08/07 06:02:32;;;;;;;20.00;18.00;;;13.50;99.90;;;;;;4996818;28;20428;-75
2022/08/07 06:05:08;;;;;;;19.53;17.43;;;13.80;99.90;;;;;;4979215;28;20479;-75
2022/08/07 06:07:40;;;;;;;17.00;15.27;;;14.00;99.90;;;;;;4979421;28;20953;-75
2022/08/07 06:10:29;;;;;;;18.10;16.20;;;14.30;99.90;;;;;;4978958;28;20445;-75
2022/08/07 06:13:00;;;;;;;18.87;16.93;;;14.60;99.90;;;;;;4979059;28;20503;-75
2022/08/07 06:15:31;;;;;;;18.17;15.07;;;14.90;99.90;;;;;;4979136;28;20551;-75
2022/08/07 06:18:11;;;;;;;15.33;13.93;;;15.20;99.90;;;;;;4996594;28;20454;-76
2022/08/07 06:20:43;;;;;;;16.37;14.67;;;15.50;99.90;;;;;;4978899;28;20441;-76
2022/08/07 06:23:34;;;;;;;15.60;14.07;;;15.80;99.90;;;;;;4979059;28;20547;-76
2022/08/07 06:26:25;;;;;;;17.23;15.53;;;16.20;99.90;;;;;;4978788;28;20441;-76
2022/08/07 06:28:58;;;;;;;14.73;13.23;;;16.50;99.90;;;;;;4978874;28;20487;-76
2022/08/07 06:31:32;;;;;;;15.63;13.97;;;16.80;99.90;;;;;;4978867;28;20920;-77
2022/08/07 06:34:23;;;;;;;13.37;12.10;;;17.10;99.90;;;;;;4978622;28;20936;-76
2022/08/07 06:36:56;;;;;;;13.13;11.73;;;17.40;99.90;;;;;;4978783;28;20895;-77
2022/08/07 06:39:31;;;;;;;14.13;11.23;;;17.70;99.90;;;;;;4978630;28;20434;-77
2022/08/07 06:42:26;;;;;;;11.20;10.00;;;17.90;99.90;;;;;;4978713;28;20419;-76
2022/08/07 06:45:17;;;;;;;10.70;9.60;;;18.20;99.90;;;;;;4978835;28;20467;-77
2022/08/07 06:47:53;;;;;;;11.10;9.90;;;18.50;99.90;;;;;;4977998;28;20540;-77
2022/08/07 06:50:44;;;;;;;10.40;9.40;;;18.70;99.90;;;;;;4979241;28;20448;-77
2022/08/07 06:53:18;;;;;;;10.43;9.23;;;19.00;99.90;;;;;;4980090;28;20445;-76
2022/08/07 06:56:08;;;;;;;9.83;8.83;;;19.20;99.90;;;;;;4994673;28;20460;-76
2022/08/07 06:58:47;;;;;;;11.00;9.90;;;19.40;99.90;;;;;;4998052;28;20946;-76
2022/08/07 07:01:41;;;;;;;9.60;8.60;;;19.60;99.90;;;;;;4996356;28;20456;-76
2022/08/07 07:04:18;;;;;;;9.50;8.53;;;19.80;99.90;;;;;;5008177;28;20468;-77
2022/08/07 07:07:01;;;;;;;9.90;8.90;;;19.90;99.90;;;;;;5011309;28;20452;-76
2022/08/07 07:09:47;;;;;;;9.80;8.80;;;20.20;99.90;;;;;;5007260;28;20433;-77
2022/08/07 07:12:26;;;;;;;11.47;8.60;;;20.30;99.90;;;;;;4988209;28;20811;-77
2022/08/07 07:15:07;;;;;;;8.63;7.67;;;20.60;99.90;;;;;;5004071;28;20472;-77
2022/08/07 07:17:58;;;;;;;9.20;8.30;;;20.80;99.90;;;;;;4987078;28;20843;-77
2022/08/07 07:20:33;;;;;;;8.50;7.60;;;20.90;99.90;;;;;;5010012;28;20428;-77
2022/08/07 07:23:03;;;;;;;9.00;8.17;;;21.10;99.90;;;;;;4987302;28;20455;-77
2022/08/07 07:25:55;;;;;;;9.83;8.23;;;21.10;99.90;;;;;;4996506;28;20492;-77
2022/08/07 07:28:48;;;;;;;9.00;8.20;;;21.20;99.90;;;;;;4978320;28;20441;-78
2022/08/07 07:31:42;;;;;;;12.13;10.83;;;21.40;99.80;;;;;;4978285;28;20425;-77
2022/08/07 07:34:16;;;;;;;7.93;7.13;;;21.40;99.70;;;;;;4996079;28;20866;-77
2022/08/07 07:36:46;;;;;;;8.00;7.20;;;21.60;99.60;;;;;;4977903;28;20445;-77
2022/08/07 07:39:22;;;;;;;9.23;8.43;;;21.70;99.20;;;;;;4996528;28;20803;-77
2022/08/07 07:41:54;;;;;;;9.10;8.20;;;21.80;98.70;;;;;;4978216;28;20453;-77
2022/08/07 07:44:45;;;;;;;8.33;7.37;;;21.80;98.30;;;;;;4996185;28;20824;-78
2022/08/07 07:47:21;;;;;;;9.13;8.00;;;21.90;98.10;;;;;;4995644;28;20443;-77
2022/08/07 07:49:56;;;;;;;10.50;9.50;;;21.90;97.90;;;;;;4979269;28;20976;-77
2022/08/07 07:52:46;;;;;;;8.03;6.90;;;22.10;97.90;;;;;;4978896;28;20506;-78
2022/08/07 07:55:17;;;;;;;8.67;7.87;;;22.20;97.70;;;;;;4994980;28;20833;-77
2022/08/07 07:57:48;;;;;;;9.63;7.30;;;22.30;97.50;;;;;;4976751;28;20480;-77
2022/08/07 08:00:20;;;;;;;8.83;7.97;;;22.40;97.20;;;;;;4994706;28;20770;-77
2022/08/07 08:03:04;;;;;;;8.70;7.90;;;22.50;97.00;;;;;;4994919;28;20452;-76
2022/08/07 08:05:40;;;;;;;10.60;9.13;;;22.60;96.80;;;;;;4994750;28;20547;-77
2022/08/07 08:08:24;;;;;;;8.83;8.03;;;22.70;96.80;;;;;;4977048;28;20838;-77
2022/08/07 08:11:06;;;;;;;8.93;7.70;;;22.80;96.50;;;;;;4977861;28;20491;-77
2022/08/07 08:13:37;;;;;;;9.20;7.90;;;22.90;96.20;;;;;;4994777;28;20503;-77
2022/08/07 08:16:28;;;;;;;11.33;7.37;;;23.00;95.90;;;;;;4977250;28;20441;-77
2022/08/07 08:19:02;;;;;;;7.53;6.80;;;23.00;95.80;;;;;;4994479;28;20465;-77
2022/08/07 08:27:49;;;;;;;8.80;8.10;;;23.10;95.10;;;;;;4938763;28;20448;-77
2022/08/07 08:30:30;;;;;;;8.50;7.70;;;23.10;94.80;;;;;;4977014;28;20451;-76
2022/08/07 08:33:05;;;;;;;9.77;8.23;;;23.00;94.70;;;;;;4994428;28;20422;-77
2022/08/07 08:35:47;;;;;;;9.33;8.33;;;23.00;94.60;;;;;;4995392;28;20515;-77
2022/08/07 08:38:22;;;;;;;8.43;7.60;;;23.00;94.40;;;;;;4995644;28;20467;-77
2022/08/07 08:41:02;;;;;;;7.40;6.77;;;23.10;94.20;;;;;;4978292;28;20523;-77
2022/08/07 08:43:40;;;;;;;7.60;6.90;;;23.10;94.10;;;;;;4996464;28;20428;-77
2022/08/07 08:46:16;;;;;;;10.47;9.47;;;23.20;94.10;;;;;;4995727;28;20452;-78
2022/08/07 08:48:57;;;;;;;8.30;7.40;;;23.20;94.00;;;;;;4995219;28;20432;-79
2022/08/07 08:51:35;;;;;;;9.30;8.40;;;23.30;93.80;;;;;;4977427;28;20464;-78
2022/08/07 08:54:28;;;;;;;8.53;7.30;;;23.30;93.80;;;;;;4995049;28;20487;-78
2022/08/07 08:57:00;;;;;;;8.07;7.27;;;23.40;93.70;;;;;;4995116;28;20520;-77
2022/08/07 08:59:35;;;;;;;8.07;7.30;;;23.50;93.50;;;;;;4977606;28;20567;-78
2022/08/07 09:02:24;;;;;;;8.70;7.80;;;23.50;93.30;;;;;;4995059;28;20421;-76
2022/08/07 09:05:20;;;;;;;8.13;7.33;;;23.50;93.10;;;;;;4995532;28;20468;-78
2022/08/07 09:08:11;;;;;;;8.20;7.40;;;23.50;92.80;;;;;;4994475;28;20447;-78
2022/08/07 09:10:48;;;;;;;8.07;7.30;;;23.50;92.60;;;;;;4997359;28;20472;-77
2022/08/07 09:13:29;;;;;;;7.07;6.47;;;23.50;92.60;;;;;;4999524;28;20417;-77
2022/08/07 09:16:14;;;;;;;7.50;6.90;;;23.40;92.40;;;;;;4998876;28;20467;-77
2022/08/07 09:19:10;;;;;;;8.53;7.73;;;23.50;92.50;;;;;;4998656;28;20503;-77
2022/08/07 09:22:11;;;;;;;8.30;6.47;;;23.50;92.50;;;;;;4981001;28;20475;-77
2022/08/07 09:25:10;;;;;;;8.07;7.37;;;23.60;92.70;;;;;;4998427;28;20471;-77
2022/08/07 09:27:55;;;;;;;7.83;7.13;;;23.70;92.60;;;;;;4998468;28;20425;-77
2022/08/07 09:30:41;;;;;;;7.93;7.23;;;23.80;92.40;;;;;;4997665;28;20813;-77
2022/08/07 09:33:27;;;;;;;7.50;6.80;;;23.80;92.20;;;;;;4998900;28;20429;-79
2022/08/07 09:36:20;;;;;;;8.97;7.27;;;23.80;92.30;;;;;;4999553;28;20949;-77
2022/08/07 09:39:02;;;;;;;9.00;8.10;;;23.90;92.20;;;;;;4999515;28;20466;-78
2022/08/07 09:41:51;;;;;;;8.87;8.03;;;23.90;92.10;;;;;;4999201;28;20543;-78
2022/08/07 09:44:47;;;;;;;7.77;6.57;;;24.00;92.10;;;;;;4997765;28;20499;-77
2022/08/07 09:47:48;;;;;;;6.93;5.93;;;24.10;91.90;;;;;;5000983;28;20448;-78
2022/08/07 09:50:36;;;;;;;6.90;6.13;;;24.10;92.00;;;;;;4982338;28;20941;-78
2022/08/07 09:53:09;;;;;;;7.30;6.60;;;24.20;91.90;;;;;;4999870;28;20420;-78
2022/08/07 09:55:55;;;;;;;7.87;6.97;;;24.20;91.90;;;;;;4983469;28;20491;-78
2022/08/07 09:59:01;;;;;;;8.07;7.33;;;24.30;91.40;;;;;;5000495;28;20451;-78
2022/08/07 10:01:55;;;;;;;6.40;5.80;;;24.30;91.40;;;;;;4996768;28;20444;-78
2022/08/07 10:04:43;;;;;;;6.87;6.17;;;24.40;91.40;;;;;;4998202;28;20974;-78
2022/08/07 10:07:39;;;;;;;6.67;6.07;;;24.40;91.10;;;;;;4980658;28;20447;-78
2022/08/07 10:10:34;;;;;;;9.20;6.47;;;24.40;90.70;;;;;;4997909;28;20790;-77
2022/08/07 10:13:47;;;;;;;6.50;5.90;;;24.40;90.80;;;;;;4997624;28;20431;-78
2022/08/07 10:16:48;;;;;;;6.90;6.30;;;24.40;90.50;;;;;;4997212;28;20455;-78
2022/08/07 10:19:42;;;;;;;6.40;5.80;;;24.40;90.60;;;;;;4998056;28;20460;-77
2022/08/07 10:22:32;;;;;;;6.70;6.10;;;24.30;90.10;;;;;;4979534;28;20443;-77
2022/08/07 10:25:14;;;;;;;7.53;6.70;;;24.10;90.00;;;;;;4983453;28;20575;-77
2022/08/07 10:28:11;;;;;;;7.53;5.57;;;24.00;89.80;;;;;;4998386;28;20425;-77
2022/08/07 10:30:58;;;;;;;6.40;5.80;;;23.90;89.60;;;;;;4997503;28;20456;-77
2022/08/07 10:33:51;;;;;;;6.40;5.80;;;24.00;89.70;;;;;;4997959;28;20891;-77
2022/08/07 10:36:57;;;;;;;6.17;5.57;;;24.00;89.40;;;;;;4997187;28;20457;-77
2022/08/07 10:39:39;;;;;;;6.03;5.43;;;24.20;89.60;;;;;;4979738;28;21048;-77
2022/08/07 10:42:32;;;;;;;6.43;5.83;;;24.30;89.20;;;;;;4996903;28;20433;-77
2022/08/07 10:45:17;;;;;;;6.57;5.97;;;24.40;89.10;;;;;;4997636;28;20468;-78
2022/08/07 10:48:01;;;;;;;6.00;5.40;;;24.50;89.10;;;;;;4980046;28;20476;-78
2022/08/07 10:50:41;;;;;;;5.77;5.27;;;24.60;88.90;;;;;;5002531;28;20427;-78
2022/08/07 10:53:25;;;;;;;6.23;5.63;;;24.60;88.50;;;;;;5000499;28;20449;-78
2022/08/07 10:56:02;;;;;;;6.10;5.27;;;24.50;88.60;;;;;;5000961;28;20464;-78
2022/08/07 10:58:46;;;;;;;6.20;5.60;;;24.50;88.50;;;;;;4981995;28;20499;-78
2022/08/07 11:01:36;;;;;;;6.77;6.17;;;24.50;87.90;;;;;;4980849;28;20445;-77
2022/08/07 11:04:37;;;;;;;8.73;7.83;;;24.40;87.90;;;;;;4978896;28;21052;-77
2022/08/07 11:07:17;;;;;;;7.47;5.63;;;24.30;87.70;;;;;;4996681;28;20783;-77
2022/08/07 11:10:23;;;;;;;6.30;4.87;;;24.30;87.50;;;;;;4996471;28;20496;-77
2022/08/07 11:13:02;;;;;;;6.37;5.30;;;24.20;87.30;;;;;;4996896;28;20422;-77
2022/08/07 11:15:35;;;;;;;5.70;5.20;;;24.20;87.10;;;;;;4978391;28;20504;-77
2022/08/07 11:18:10;;;;;;;5.27;4.77;;;24.30;87.00;;;;;;4996196;28;20788;-77
2022/08/07 11:20:48;;;;;;;8.27;4.77;;;24.20;86.60;;;;;;4995397;28;20989;-76
2022/08/07 11:23:24;;;;;;;4.80;4.20;;;24.20;86.30;;;;;;4996129;28;20777;-77
2022/08/07 11:26:05;;;;;;;4.90;4.23;;;24.10;85.80;;;;;;4994450;28;20478;-77
2022/08/07 11:28:38;;;;;;;5.80;4.60;;;24.00;85.60;;;;;;4995726;28;20891;-77
2022/08/07 11:31:19;;;;;;;5.53;4.83;;;24.00;85.60;;;;;;4977949;28;20441;-77
2022/08/07 11:33:59;;;;;;;6.70;6.00;;;24.10;85.80;;;;;;4995375;28;20421;-77
2022/08/07 11:36:39;;;;;;;6.03;5.43;;;24.10;85.50;;;;;;4978143;28;20470;-77
2022/08/07 11:39:23;;;;;;;5.20;4.70;;;24.10;85.40;;;;;;4995469;28;20958;-77
2022/08/07 11:42:26;;;;;;;5.40;4.73;;;24.10;85.50;;;;;;4977535;28;20449;-77
2022/08/07 11:45:10;;;;;;;5.53;5.03;;;24.20;85.30;;;;;;4995299;28;20464;-77
2022/08/07 11:47:53;;;;;;;5.77;5.17;;;24.30;85.00;;;;;;4977701;28;20452;-77
2022/08/07 11:50:37;;;;;;;5.23;4.73;;;24.30;84.80;;;;;;4977602;28;20926;-77
2022/08/07 11:53:36;;;;;;;5.60;5.10;;;24.20;85.00;;;;;;4995587;28;20417;-77
2022/08/07 11:56:32;;;;;;;6.13;4.97;;;24.20;85.10;;;;;;4995143;28;20532;-77
2022/08/07 11:59:23;;;;;;;12.70;5.33;;;24.20;85.10;;;;;;4977696;28;20942;-77
2022/08/07 12:02:26;;;;;;;5.53;5.03;;;24.20;84.90;;;;;;4996926;28;20449;-76
2022/08/07 12:05:11;;;;;;;8.00;4.97;;;24.20;84.70;;;;;;4996214;28;20459;-77
2022/08/07 12:08:00;;;;;;;5.80;5.27;;;24.20;84.10;;;;;;4997969;28;20436;-77
2022/08/07 12:10:37;;;;;;;5.50;5.00;;;24.20;84.20;;;;;;4980294;28;20440;-77
2022/08/07 12:13:20;;;;;;;5.53;5.03;;;24.20;84.30;;;;;;5003890;28;20437;-76
2022/08/07 12:16:09;;;;;;;5.60;5.07;;;24.20;84.20;;;;;;4999203;28;20475;-77
2022/08/07 12:18:46;;;;;;;5.97;5.20;;;24.10;84.00;;;;;;4995822;28;20436;-76
2022/08/07 12:21:28;;;;;;;5.90;5.40;;;24.00;84.00;;;;;;4995446;28;20467;-76
2022/08/07 12:24:20;;;;;;;5.90;5.27;;;24.00;84.20;;;;;;4995475;28;20469;-76
2022/08/07 12:27:12;;;;;;;5.60;4.80;;;24.00;84.30;;;;;;4996178;28;20964;-76
2022/08/07 12:29:49;;;;;;;5.30;4.80;;;24.00;84.00;;;;;;4996585;28;20467;-77
2022/08/07 12:32:27;;;;;;;5.50;5.00;;;24.00;83.80;;;;;;4996730;28;20417;-76
2022/08/07 12:34:59;;;;;;;5.47;4.97;;;24.00;84.10;;;;;;4996564;28;20543;-76
2022/08/07 12:37:29;;;;;;;5.60;4.73;;;24.00;84.40;;;;;;4977983;28;20452;-76
2022/08/07 12:40:21;;;;;;;6.80;4.63;;;24.10;84.60;;;;;;4994810;28;20456;-76
2022/08/07 12:43:12;;;;;;;5.30;4.80;;;24.20;84.50;;;;;;4995200;28;20432;-76
2022/08/07 12:46:13;;;;;;;5.17;4.63;;;24.30;84.20;;;;;;4997061;28;20480;-76
2022/08/07 12:49:01;;;;;;;4.57;4.13;;;24.40;83.90;;;;;;4980835;28;20453;-77
2022/08/07 12:51:53;;;;;;;6.43;5.80;;;24.40;83.60;;;;;;4997264;28;20915;-77
2022/08/07 12:54:52;;;;;;;6.17;5.20;;;24.50;84.00;;;;;;4998353;28;20482;-76
2022/08/07 12:57:28;;;;;;;5.03;4.50;;;24.60;84.20;;;;;;4998424;28;20413;-75
2022/08/07 13:00:17;;;;;;;9.23;5.50;;;24.70;83.60;;;;;;4998578;28;20544;-75
2022/08/07 13:03:12;;;;;;;5.90;5.30;;;24.70;83.20;;;;;;4998614;28;20519;-76
2022/08/07 13:06:09;;;;;;;6.47;5.60;;;24.80;83.00;;;;;;4998263;28;20453;-76
2022/08/07 13:08:59;;;;;;;6.70;5.40;;;24.90;82.80;;;;;;4997663;28;20950;-76
2022/08/07 13:11:41;;;;;;;8.40;6.00;;;24.90;82.80;;;;;;4997731;28;20511;-76
2022/08/07 13:14:39;;;;;;;6.03;5.43;;;24.90;82.80;;;;;;4997499;28;20472;-76
2022/08/07 13:17:30;;;;;;;5.87;5.30;;;24.90;82.90;;;;;;4997786;28;20445;-76
2022/08/07 13:20:18;;;;;;;6.00;5.40;;;24.80;82.80;;;;;;4997748;28;20440;-76
2022/08/07 13:23:00;;;;;;;6.10;5.50;;;24.80;82.70;;;;;;4980920;28;20822;-76
2022/08/07 13:25:46;;;;;;;5.40;4.90;;;24.80;82.30;;;;;;4998727;28;20850;-76
2022/08/07 13:28:28;;;;;;;7.10;5.00;;;24.80;82.20;;;;;;4981319;28;20444;-77
2022/08/07 13:31:01;;;;;;;5.60;5.00;;;24.70;81.50;;;;;;4998545;28;20448;-77
2022/08/07 13:33:50;;;;;;;6.10;5.53;;;24.70;81.60;;;;;;4998538;28;20421;-77
2022/08/07 13:36:43;;;;;;;6.17;5.57;;;24.60;81.50;;;;;;5003178;28;20448;-77
2022/08/07 13:39:28;;;;;;;6.23;5.63;;;24.50;81.80;;;;;;4999096;28;20997;-77
2022/08/07 13:42:18;;;;;;;7.20;6.00;;;24.50;82.10;;;;;;4997719;28;21071;-77
2022/08/07 13:44:53;;;;;;;6.07;5.47;;;24.40;82.00;;;;;;4997961;28;20476;-77
2022/08/07 13:47:42;;;;;;;6.50;4.97;;;24.30;81.80;;;;;;4998015;28;20811;-77
2022/08/07 13:50:32;;;;;;;5.90;5.40;;;24.30;81.90;;;;;;4997691;28;20429;-77
2022/08/07 13:53:26;;;;;;;5.50;5.00;;;24.20;82.00;;;;;;4997804;28;20841;-77
2022/08/07 13:56:20;;;;;;;6.50;5.90;;;24.20;82.10;;;;;;4996606;28;20436;-77
2022/08/07 13:59:12;;;;;;;6.63;5.60;;;24.20;82.20;;;;;;4997380;28;20480;-77